createdAt,value
2017-11-07T00:00:21.204Z,8.2
2017-11-07T00:01:20.901Z,8.26
2017-11-07T00:02:20.915Z,8.3
2017-11-07T00:03:21.250Z,8.3
2017-11-07T00:04:21.278Z,8.41
2017-11-07T00:05:20.962Z,8.3
2017-11-07T00:06:20.976Z,8.37
2017-11-07T00:07:21.316Z,8.3
2017-11-07T00:08:21.338Z,8.44
2017-11-07T00:09:21.400Z,8.34
2017-11-07T00:10:21.043Z,8.24
2017-11-07T00:11:21.060Z,8.13
2017-11-07T00:12:21.397Z,8.08
2017-11-07T00:13:21.100Z,8.01
2017-11-07T00:14:21.498Z,8.06
2017-11-07T00:15:21.456Z,7.98
2017-11-07T00:16:21.474Z,8.03
2017-11-07T00:17:21.495Z,8.08
2017-11-07T00:18:21.187Z,7.98
2017-11-07T00:19:21.513Z,8.05
2017-11-07T00:20:21.208Z,8.08
2017-11-07T00:21:21.547Z,7.95
2017-11-07T00:22:21.242Z,7.91
2017-11-07T00:23:21.256Z,7.94
2017-11-07T00:24:21.326Z,7.95
2017-11-07T00:25:21.624Z,7.72
2017-11-07T00:26:21.306Z,7.95
2017-11-07T00:27:21.325Z,7.98
2017-11-07T00:28:21.663Z,8.05
2017-11-07T00:29:21.675Z,8.01
2017-11-07T00:30:21.577Z,8.13
2017-11-07T00:31:21.390Z,8.27
2017-11-07T00:32:21.412Z,8.13
2017-11-07T00:33:21.791Z,8.19
2017-11-07T00:34:21.442Z,8.16
2017-11-07T00:35:21.777Z,8.1
2017-11-07T00:36:21.801Z,8.15
2017-11-07T00:37:21.819Z,8.2
2017-11-07T00:38:21.508Z,8.1
2017-11-07T00:39:21.892Z,8.1
2017-11-07T00:40:21.874Z,8.03
2017-11-07T00:41:21.554Z,8.09
2017-11-07T00:42:21.898Z,8.18
2017-11-07T00:43:21.592Z,8.2
2017-11-07T00:44:21.931Z,8.16
2017-11-07T00:45:21.624Z,8.13
2017-11-07T00:46:21.958Z,8.08
2017-11-07T00:47:21.333Z,8.08
2017-11-07T00:48:21.998Z,8.1
2017-11-07T00:49:21.365Z,8.15
2017-11-07T00:50:21.384Z,8.2
2017-11-07T00:51:22.040Z,8.2
2017-11-07T00:52:22.060Z,8.15
2017-11-07T00:53:21.752Z,8.24
2017-11-07T00:54:21.818Z,8.28
2017-11-07T00:55:22.108Z,8.27
2017-11-07T00:56:22.127Z,8.24
2017-11-07T00:57:21.825Z,8.13
2017-11-07T00:58:21.848Z,8.26
2017-11-07T00:59:22.175Z,8.15
2017-11-07T01:00:21.871Z,8.2
2017-11-07T01:01:21.888Z,8.15
2017-11-07T01:02:21.585Z,8.13
2017-11-07T01:03:21.919Z,8.26
2017-11-07T01:04:21.939Z,8.18
2017-11-07T01:05:21.956Z,8.26
2017-11-07T01:06:21.968Z,8.28
2017-11-07T01:07:21.989Z,8.31
2017-11-07T01:08:22.005Z,8.31
2017-11-07T01:09:22.084Z,8.16
2017-11-07T01:10:22.364Z,8.2
2017-11-07T01:11:22.051Z,8.08
2017-11-07T01:12:22.071Z,8.1
2017-11-07T01:13:22.412Z,8.08
2017-11-07T01:14:21.781Z,8.1
2017-11-07T01:15:22.442Z,8.16
2017-11-07T01:16:22.153Z,8.23
2017-11-07T01:17:22.473Z,8.19
2017-11-07T01:18:22.172Z,8.2
2017-11-07T01:19:22.186Z,8.31
2017-11-07T01:20:22.528Z,8.28
2017-11-07T01:21:22.539Z,8.2
2017-11-07T01:22:22.230Z,8.24
2017-11-07T01:23:22.572Z,8.24
2017-11-07T01:24:22.320Z,8.27
2017-11-07T01:25:22.281Z,8.28
2017-11-07T01:26:22.298Z,8.37
2017-11-07T01:27:21.995Z,8.42
2017-11-07T01:28:22.339Z,8.38
2017-11-07T01:29:22.668Z,8.42
2017-11-07T01:30:22.367Z,8.48
2017-11-07T01:31:22.383Z,8.44
2017-11-07T01:32:22.729Z,8.48
2017-11-07T01:33:22.417Z,8.55
2017-11-07T01:34:22.449Z,8.49
2017-11-07T01:35:22.471Z,8.45
2017-11-07T01:36:22.791Z,8.56
2017-11-07T01:37:22.815Z,8.51
2017-11-07T01:38:22.829Z,8.58
2017-11-07T01:39:22.521Z,8.64
2017-11-07T01:40:22.858Z,8.44
2017-11-07T01:41:22.604Z,8.52
2017-11-07T01:42:22.572Z,8.45
2017-11-07T01:43:22.586Z,8.33
2017-11-07T01:44:22.931Z,8.42
2017-11-07T01:45:22.956Z,8.3
2017-11-07T01:46:22.646Z,8.37
2017-11-07T01:47:22.657Z,8.37
2017-11-07T01:48:22.996Z,8.41
2017-11-07T01:49:23.010Z,8.41
2017-11-07T01:50:22.707Z,8.38
2017-11-07T01:51:22.727Z,8.41
2017-11-07T01:52:22.739Z,8.51
2017-11-07T01:53:23.077Z,8.56
2017-11-07T01:54:22.769Z,8.42
2017-11-07T01:55:23.106Z,8.45
2017-11-07T01:56:23.179Z,8.42
2017-11-07T01:57:22.827Z,8.46
2017-11-07T01:58:22.516Z,8.46
2017-11-07T01:59:22.869Z,8.42
2017-11-07T02:00:22.889Z,8.37
2017-11-07T02:01:22.568Z,8.42
2017-11-07T02:02:23.229Z,8.31
2017-11-07T02:03:22.920Z,8.28
2017-11-07T02:04:23.264Z,8.28
2017-11-07T02:05:22.954Z,8.3
2017-11-07T02:06:22.970Z,8.23
2017-11-07T02:07:22.986Z,8.1
2017-11-07T02:08:22.999Z,8.12
2017-11-07T02:09:23.335Z,8.16
2017-11-07T02:10:22.715Z,8.06
2017-11-07T02:11:23.431Z,8.16
2017-11-07T02:12:23.402Z,8.05
2017-11-07T02:13:22.763Z,8.18
2017-11-07T02:14:23.101Z,8.16
2017-11-07T02:15:23.471Z,8.13
2017-11-07T02:16:22.811Z,8
2017-11-07T02:17:23.476Z,7.95
2017-11-07T02:18:23.521Z,7.91
2017-11-07T02:19:23.204Z,7.88
2017-11-07T02:20:23.522Z,7.95
2017-11-07T02:21:23.214Z,7.83
2017-11-07T02:22:23.231Z,7.73
2017-11-07T02:23:23.584Z,7.8
2017-11-07T02:24:23.599Z,7.72
2017-11-07T02:25:23.601Z,7.88
2017-11-07T02:26:23.667Z,7.9
2017-11-07T02:27:23.310Z,7.88
2017-11-07T02:28:23.650Z,7.97
2017-11-07T02:29:23.023Z,8.08
2017-11-07T02:30:23.361Z,8.01
2017-11-07T02:31:23.055Z,7.85
2017-11-07T02:32:23.731Z,7.9
2017-11-07T02:33:23.423Z,7.94
2017-11-07T02:34:23.426Z,8.03
2017-11-07T02:35:23.771Z,8.01
2017-11-07T02:36:23.796Z,7.94
2017-11-07T02:37:23.815Z,7.85
2017-11-07T02:38:23.486Z,7.83
2017-11-07T02:39:23.836Z,8.01
2017-11-07T02:40:23.844Z,8.03
2017-11-07T02:41:23.688Z,8
2017-11-07T02:42:23.553Z,8.01
2017-11-07T02:43:23.570Z,8.06
2017-11-07T02:44:23.593Z,7.9
2017-11-07T02:45:23.927Z,7.8
2017-11-07T02:46:23.622Z,7.83
2017-11-07T02:47:23.962Z,7.97
2017-11-07T02:48:23.664Z,7.97
2017-11-07T02:49:23.667Z,7.83
2017-11-07T02:50:23.683Z,7.88
2017-11-07T02:51:24.038Z,7.83
2017-11-07T02:52:23.718Z,7.95
2017-11-07T02:53:23.742Z,7.95
2017-11-07T02:54:23.746Z,7.95
2017-11-07T02:55:23.445Z,8.03
2017-11-07T02:56:23.835Z,7.93
2017-11-07T02:57:24.127Z,7.93
2017-11-07T02:58:24.139Z,7.95
2017-11-07T02:59:23.506Z,7.94
2017-11-07T03:00:23.841Z,7.93
2017-11-07T03:01:23.913Z,7.88
2017-11-07T03:02:23.875Z,7.87
2017-11-07T03:03:23.898Z,7.93
2017-11-07T03:04:23.931Z,7.82
2017-11-07T03:05:24.276Z,7.77
2017-11-07T03:06:23.941Z,7.79
2017-11-07T03:07:24.280Z,7.8
2017-11-07T03:08:23.973Z,7.83
2017-11-07T03:09:23.668Z,7.87
2017-11-07T03:10:23.685Z,8.01
2017-11-07T03:11:24.073Z,8
2017-11-07T03:12:24.368Z,7.85
2017-11-07T03:13:24.374Z,7.85
2017-11-07T03:14:24.076Z,7.94
2017-11-07T03:15:23.771Z,7.94
2017-11-07T03:16:23.782Z,7.98
2017-11-07T03:17:23.800Z,8.08
2017-11-07T03:18:24.136Z,8.05
2017-11-07T03:19:24.150Z,8.06
2017-11-07T03:20:24.173Z,8.09
2017-11-07T03:21:24.183Z,8.12
2017-11-07T03:22:24.206Z,8.06
2017-11-07T03:23:24.561Z,8.09
2017-11-07T03:24:24.238Z,7.95
2017-11-07T03:25:23.928Z,7.94
2017-11-07T03:26:24.314Z,8.08
2017-11-07T03:27:24.605Z,7.95
2017-11-07T03:28:24.294Z,7.95
2017-11-07T03:29:24.319Z,8.01
2017-11-07T03:30:24.339Z,8.09
2017-11-07T03:31:24.678Z,8.09
2017-11-07T03:32:24.694Z,8.24
2017-11-07T03:33:24.703Z,8.26
2017-11-07T03:34:24.396Z,8.2
2017-11-07T03:35:24.415Z,8.1
2017-11-07T03:36:24.784Z,8.19
2017-11-07T03:37:24.770Z,8.23
2017-11-07T03:38:24.781Z,8.26
2017-11-07T03:39:24.478Z,8.27
2017-11-07T03:40:24.838Z,8.33
2017-11-07T03:41:24.560Z,8.34
2017-11-07T03:42:24.523Z,8.37
2017-11-07T03:43:24.223Z,8.37
2017-11-07T03:44:24.876Z,8.27
2017-11-07T03:45:24.893Z,8.28
2017-11-07T03:46:24.594Z,8.3
2017-11-07T03:47:24.606Z,8.36
2017-11-07T03:48:24.625Z,8.41
2017-11-07T03:49:24.961Z,8.38
2017-11-07T03:50:24.657Z,8.28
2017-11-07T03:51:24.697Z,8.28
2017-11-07T03:52:24.689Z,8.37
2017-11-07T03:53:25.035Z,8.34
2017-11-07T03:54:24.724Z,8.15
2017-11-07T03:55:24.736Z,8.12
2017-11-07T03:56:24.484Z,8.15
2017-11-07T03:57:25.100Z,8.16
2017-11-07T03:58:24.790Z,8.31
2017-11-07T03:59:24.482Z,8.28
2017-11-07T04:00:24.826Z,8.3
2017-11-07T04:01:24.840Z,8.24
2017-11-07T04:02:24.862Z,8.34
2017-11-07T04:03:24.875Z,8.24
2017-11-07T04:04:24.888Z,8.2
2017-11-07T04:05:25.238Z,8.16
2017-11-07T04:06:25.243Z,8.13
2017-11-07T04:07:24.941Z,8.19
2017-11-07T04:08:24.632Z,8.15
2017-11-07T04:09:24.648Z,8.19
2017-11-07T04:10:25.307Z,8.06
2017-11-07T04:11:25.003Z,7.94
2017-11-07T04:12:25.343Z,8.03
2017-11-07T04:13:25.045Z,8.06
2017-11-07T04:14:25.393Z,8.01
2017-11-07T04:15:25.070Z,8.08
2017-11-07T04:16:25.086Z,8.18
2017-11-07T04:17:24.779Z,8.08
2017-11-07T04:18:25.446Z,8.08
2017-11-07T04:19:25.134Z,8.01
2017-11-07T04:20:25.156Z,8.05
2017-11-07T04:21:25.171Z,7.9
2017-11-07T04:22:25.189Z,7.91
2017-11-07T04:23:25.535Z,7.88
2017-11-07T04:24:25.543Z,7.91
2017-11-07T04:25:25.557Z,8.03
2017-11-07T04:26:25.567Z,7.97
2017-11-07T04:27:25.586Z,8.12
2017-11-07T04:28:25.295Z,8
2017-11-07T04:29:25.669Z,8.08
2017-11-07T04:30:24.991Z,8.03
2017-11-07T04:31:25.654Z,8.06
2017-11-07T04:32:25.351Z,8.05
2017-11-07T04:33:25.689Z,8.05
2017-11-07T04:34:25.718Z,8.05
2017-11-07T04:35:25.758Z,8
2017-11-07T04:36:25.734Z,8.06
2017-11-07T04:37:25.435Z,7.91
2017-11-07T04:38:25.770Z,7.83
2017-11-07T04:39:25.466Z,7.8
2017-11-07T04:40:25.475Z,7.87
2017-11-07T04:41:25.816Z,7.8
2017-11-07T04:42:25.533Z,7.85
2017-11-07T04:43:25.852Z,7.93
2017-11-07T04:44:25.595Z,7.87
2017-11-07T04:45:25.559Z,7.72
2017-11-07T04:46:25.573Z,7.67
2017-11-07T04:47:25.590Z,7.66
2017-11-07T04:48:25.604Z,7.76
2017-11-07T04:49:25.943Z,7.85
2017-11-07T04:50:25.315Z,7.83
2017-11-07T04:51:25.975Z,7.95
2017-11-07T04:52:25.987Z,7.93
2017-11-07T04:53:26.007Z,7.88
2017-11-07T04:54:25.379Z,7.63
2017-11-07T04:55:25.412Z,7.7
2017-11-07T04:56:26.077Z,7.72
2017-11-07T04:57:25.425Z,7.73
2017-11-07T04:58:25.760Z,7.72
2017-11-07T04:59:25.825Z,7.67
2017-11-07T05:00:26.120Z,7.66
2017-11-07T05:01:25.812Z,7.77
2017-11-07T05:02:25.850Z,7.75
2017-11-07T05:03:25.844Z,7.9
2017-11-07T05:04:25.885Z,7.85
2017-11-07T05:05:26.199Z,7.73
2017-11-07T05:06:25.894Z,7.85
2017-11-07T05:07:26.241Z,7.9
2017-11-07T05:08:25.932Z,7.85
2017-11-07T05:09:25.941Z,7.83
2017-11-07T05:10:26.308Z,7.9
2017-11-07T05:11:25.977Z,7.82
2017-11-07T05:12:26.319Z,7.83
2017-11-07T05:13:26.333Z,7.82
2017-11-07T05:14:26.410Z,7.82
2017-11-07T05:15:26.471Z,7.69
2017-11-07T05:16:26.056Z,7.73
2017-11-07T05:17:26.074Z,7.63
2017-11-07T05:18:26.420Z,7.67
2017-11-07T05:19:26.102Z,7.56
2017-11-07T05:20:25.801Z,7.54
2017-11-07T05:21:26.138Z,7.73
2017-11-07T05:22:26.493Z,7.66
2017-11-07T05:23:25.849Z,7.75
2017-11-07T05:24:26.505Z,7.72
2017-11-07T05:25:26.531Z,7.69
2017-11-07T05:26:25.896Z,7.73
2017-11-07T05:27:26.241Z,7.85
2017-11-07T05:28:26.572Z,7.85
2017-11-07T05:29:26.347Z,7.87
2017-11-07T05:30:26.610Z,7.88
2017-11-07T05:31:26.349Z,7.95
2017-11-07T05:32:26.317Z,7.91
2017-11-07T05:33:26.782Z,7.88
2017-11-07T05:34:26.352Z,7.97
2017-11-07T05:35:26.042Z,7.94
2017-11-07T05:36:26.059Z,7.93
2017-11-07T05:37:26.731Z,7.94
2017-11-07T05:38:26.093Z,7.83
2017-11-07T05:39:26.766Z,7.75
2017-11-07T05:40:26.448Z,7.82
2017-11-07T05:41:26.791Z,7.75
2017-11-07T05:42:26.812Z,7.8
2017-11-07T05:43:26.497Z,7.93
2017-11-07T05:44:26.565Z,7.7
2017-11-07T05:45:26.541Z,7.67
2017-11-07T05:46:26.551Z,7.63
2017-11-07T05:47:26.563Z,7.67
2017-11-07T05:48:26.646Z,7.82
2017-11-07T05:49:26.598Z,7.85
2017-11-07T05:50:26.606Z,7.91
2017-11-07T05:51:26.625Z,7.75
2017-11-07T05:52:26.973Z,7.85
2017-11-07T05:53:26.980Z,7.72
2017-11-07T05:54:26.671Z,7.77
2017-11-07T05:55:27.008Z,7.82
2017-11-07T05:56:27.024Z,7.83
2017-11-07T05:57:26.718Z,7.87
2017-11-07T05:58:26.734Z,7.72
2017-11-07T05:59:27.132Z,7.57
2017-11-07T06:00:27.092Z,7.63
2017-11-07T06:01:27.105Z,7.63
2017-11-07T06:02:26.802Z,7.69
2017-11-07T06:03:26.832Z,7.76
2017-11-07T06:04:26.510Z,7.77
2017-11-07T06:05:26.850Z,7.67
2017-11-07T06:06:26.863Z,7.66
2017-11-07T06:07:26.885Z,7.75
2017-11-07T06:08:27.217Z,7.82
2017-11-07T06:09:27.251Z,7.91
2017-11-07T06:10:27.257Z,7.93
2017-11-07T06:11:27.276Z,7.87
2017-11-07T06:12:26.962Z,7.82
2017-11-07T06:13:27.301Z,7.73
2017-11-07T06:14:27.042Z,7.66
2017-11-07T06:15:27.333Z,7.72
2017-11-07T06:16:27.349Z,7.75
2017-11-07T06:17:26.723Z,7.66
2017-11-07T06:18:27.068Z,7.76
2017-11-07T06:19:27.074Z,7.77
2017-11-07T06:20:27.413Z,7.73
2017-11-07T06:21:27.434Z,7.77
2017-11-07T06:22:26.802Z,7.75
2017-11-07T06:23:27.463Z,7.87
2017-11-07T06:24:27.158Z,7.85
2017-11-07T06:25:27.173Z,7.77
2017-11-07T06:26:27.513Z,7.79
2017-11-07T06:27:26.882Z,7.72
2017-11-07T06:28:27.538Z,7.72
2017-11-07T06:29:27.618Z,7.63
2017-11-07T06:30:27.580Z,7.58
2017-11-07T06:31:27.598Z,7.58
2017-11-07T06:32:26.967Z,7.45
2017-11-07T06:33:27.304Z,7.45
2017-11-07T06:34:27.046Z,7.42
2017-11-07T06:35:27.334Z,7.5
2017-11-07T06:36:27.352Z,7.54
2017-11-07T06:37:27.689Z,7.51
2017-11-07T06:38:27.714Z,7.43
2017-11-07T06:39:27.453Z,7.36
2017-11-07T06:40:27.737Z,7.4
2017-11-07T06:41:27.441Z,7.47
2017-11-07T06:42:27.771Z,7.56
2017-11-07T06:43:27.789Z,7.57
2017-11-07T06:44:27.222Z,7.58
2017-11-07T06:45:27.508Z,7.69
2017-11-07T06:46:27.517Z,7.66
2017-11-07T06:47:27.526Z,7.56
2017-11-07T06:48:27.543Z,7.61
2017-11-07T06:49:27.237Z,7.6
2017-11-07T06:50:27.905Z,7.63
2017-11-07T06:51:27.610Z,7.53
2017-11-07T06:52:27.930Z,7.54
2017-11-07T06:53:27.623Z,7.5
2017-11-07T06:54:27.637Z,7.54
2017-11-07T06:55:27.661Z,7.73
2017-11-07T06:56:27.993Z,7.79
2017-11-07T06:57:27.694Z,7.73
2017-11-07T06:58:27.702Z,7.76
2017-11-07T06:59:27.770Z,7.79
2017-11-07T07:00:27.736Z,7.83
2017-11-07T07:01:28.076Z,8
2017-11-07T07:02:28.097Z,7.95
2017-11-07T07:03:28.113Z,7.85
2017-11-07T07:04:27.807Z,7.94
2017-11-07T07:05:27.818Z,7.97
2017-11-07T07:06:27.516Z,7.94
2017-11-07T07:07:27.859Z,8.18
2017-11-07T07:08:28.190Z,7.97
2017-11-07T07:09:28.192Z,8.08
2017-11-07T07:10:27.902Z,8.01
2017-11-07T07:11:28.269Z,8.06
2017-11-07T07:12:28.253Z,8.05
2017-11-07T07:13:28.289Z,8.09
2017-11-07T07:14:28.014Z,8.05
2017-11-07T07:15:27.981Z,8.06
2017-11-07T07:16:27.673Z,8.06
2017-11-07T07:17:28.337Z,8.1
2017-11-07T07:18:28.029Z,8.16
2017-11-07T07:19:27.732Z,8.18
2017-11-07T07:20:28.066Z,8.15
2017-11-07T07:21:28.078Z,8.1
2017-11-07T07:22:27.776Z,8.06
2017-11-07T07:23:28.111Z,8.01
2017-11-07T07:24:28.128Z,8.08
2017-11-07T07:25:28.143Z,7.91
2017-11-07T07:26:28.484Z,7.91
2017-11-07T07:27:28.175Z,7.94
2017-11-07T07:28:28.527Z,8.08
2017-11-07T07:29:28.584Z,8.12
2017-11-07T07:30:28.559Z,8.1
2017-11-07T07:31:28.570Z,8.16
2017-11-07T07:32:27.935Z,8.19
2017-11-07T07:33:27.957Z,8.2
2017-11-07T07:34:28.290Z,8.03
2017-11-07T07:35:27.990Z,8.15
2017-11-07T07:36:28.322Z,8.01
2017-11-07T07:37:28.334Z,8.01
2017-11-07T07:38:28.353Z,7.95
2017-11-07T07:39:28.690Z,7.82
2017-11-07T07:40:28.388Z,7.82
2017-11-07T07:41:28.403Z,7.97
2017-11-07T07:42:28.743Z,7.88
2017-11-07T07:43:28.443Z,7.83
2017-11-07T07:44:28.821Z,7.87
2017-11-07T07:45:28.468Z,7.87
2017-11-07T07:46:28.484Z,7.85
2017-11-07T07:47:28.497Z,7.83
2017-11-07T07:48:28.195Z,7.8
2017-11-07T07:49:28.530Z,7.79
2017-11-07T07:50:28.551Z,7.83
2017-11-07T07:51:28.241Z,7.79
2017-11-07T07:52:28.581Z,7.9
2017-11-07T07:53:28.594Z,7.94
2017-11-07T07:54:28.933Z,8.03
2017-11-07T07:55:28.950Z,7.97
2017-11-07T07:56:28.646Z,8.06
2017-11-07T07:57:28.343Z,7.95
2017-11-07T07:58:29.008Z,8.03
2017-11-07T07:59:29.068Z,8.03
2017-11-07T08:00:28.708Z,8.08
2017-11-07T08:01:29.054Z,8.12
2017-11-07T08:02:28.742Z,8.09
2017-11-07T08:03:29.082Z,8.05
2017-11-07T08:04:28.455Z,8.08
2017-11-07T08:05:29.139Z,8.12
2017-11-07T08:06:28.506Z,8.16
2017-11-07T08:07:28.825Z,8.34
2017-11-07T08:08:28.523Z,8.37
2017-11-07T08:09:28.869Z,8.41
2017-11-07T08:10:28.556Z,8.41
2017-11-07T08:11:29.213Z,8.44
2017-11-07T08:12:28.590Z,8.3
2017-11-07T08:13:29.243Z,8.41
2017-11-07T08:14:28.943Z,8.42
2017-11-07T08:15:28.637Z,8.37
2017-11-07T08:16:29.005Z,8.31
2017-11-07T08:17:28.995Z,8.28
2017-11-07T08:18:29.381Z,8.2
2017-11-07T08:19:29.027Z,8.2
2017-11-07T08:20:29.040Z,8.13
2017-11-07T08:21:29.380Z,8.19
2017-11-07T08:22:29.073Z,8.15
2017-11-07T08:23:29.410Z,8.15
2017-11-07T08:24:29.111Z,8.19
2017-11-07T08:25:29.125Z,8.16
2017-11-07T08:26:29.145Z,8.2
2017-11-07T08:27:29.169Z,8.26
2017-11-07T08:28:29.500Z,8.27
2017-11-07T08:29:29.512Z,8.28
2017-11-07T08:30:29.211Z,8.28
2017-11-07T08:31:28.903Z,8.34
2017-11-07T08:32:29.243Z,8.26
2017-11-07T08:33:28.990Z,8.24
2017-11-07T08:34:29.599Z,8.3
2017-11-07T08:35:29.291Z,8.27
2017-11-07T08:36:29.636Z,8.3
2017-11-07T08:37:29.662Z,8.2
2017-11-07T08:38:29.020Z,8.27
2017-11-07T08:39:29.360Z,8.41
2017-11-07T08:40:29.698Z,8.33
2017-11-07T08:41:29.722Z,8.41
2017-11-07T08:42:29.418Z,8.44
2017-11-07T08:43:29.750Z,8.36
2017-11-07T08:44:29.446Z,8.48
2017-11-07T08:45:29.138Z,8.45
2017-11-07T08:46:29.794Z,8.23
2017-11-07T08:47:29.492Z,8.33
2017-11-07T08:48:29.557Z,8.37
2017-11-07T08:49:29.854Z,8.46
2017-11-07T08:50:29.871Z,8.53
2017-11-07T08:51:29.883Z,8.61
2017-11-07T08:52:29.249Z,8.53
2017-11-07T08:53:29.909Z,8.69
2017-11-07T08:54:29.607Z,8.67
2017-11-07T08:55:29.625Z,8.67
2017-11-07T08:56:29.994Z,8.61
2017-11-07T08:57:29.974Z,8.52
2017-11-07T08:58:29.994Z,8.53
2017-11-07T08:59:30.010Z,8.64
2017-11-07T09:00:29.388Z,8.49
2017-11-07T09:01:29.738Z,8.34
2017-11-07T09:02:30.070Z,8.44
2017-11-07T09:03:30.131Z,8.63
2017-11-07T09:04:29.460Z,8.53
2017-11-07T09:05:30.110Z,8.53
2017-11-07T09:06:30.130Z,8.69
2017-11-07T09:07:30.144Z,8.7
2017-11-07T09:08:29.841Z,8.67
2017-11-07T09:09:29.858Z,8.7
2017-11-07T09:10:29.874Z,8.55
2017-11-07T09:11:30.221Z,8.45
2017-11-07T09:12:29.921Z,8.6
2017-11-07T09:13:30.246Z,8.6
2017-11-07T09:14:29.622Z,8.52
2017-11-07T09:15:29.960Z,8.58
2017-11-07T09:16:29.659Z,8.6
2017-11-07T09:17:29.994Z,8.67
2017-11-07T09:18:30.380Z,8.64
2017-11-07T09:19:29.715Z,8.6
2017-11-07T09:20:30.369Z,8.6
2017-11-07T09:21:30.382Z,8.7
2017-11-07T09:22:30.085Z,8.64
2017-11-07T09:23:30.416Z,8.48
2017-11-07T09:24:29.789Z,8.56
2017-11-07T09:25:30.131Z,8.52
2017-11-07T09:26:30.151Z,8.76
2017-11-07T09:27:30.162Z,8.73
2017-11-07T09:28:30.503Z,8.73
2017-11-07T09:29:30.196Z,8.6
2017-11-07T09:30:29.890Z,8.76
2017-11-07T09:31:30.552Z,8.71
2017-11-07T09:32:30.247Z,8.82
2017-11-07T09:33:30.316Z,8.82
2017-11-07T09:34:30.601Z,8.84
2017-11-07T09:35:30.297Z,8.88
2017-11-07T09:36:30.642Z,8.94
2017-11-07T09:37:30.331Z,8.81
2017-11-07T09:38:30.719Z,8.78
2017-11-07T09:39:30.687Z,8.81
2017-11-07T09:40:30.061Z,8.85
2017-11-07T09:41:30.083Z,8.74
2017-11-07T09:42:30.420Z,8.81
2017-11-07T09:43:30.756Z,8.85
2017-11-07T09:44:30.773Z,8.92
2017-11-07T09:45:30.797Z,8.79
2017-11-07T09:46:30.162Z,8.91
2017-11-07T09:47:30.833Z,8.69
2017-11-07T09:48:30.899Z,8.79
2017-11-07T09:49:30.538Z,8.73
2017-11-07T09:50:30.874Z,8.67
2017-11-07T09:51:30.891Z,8.81
2017-11-07T09:52:30.913Z,8.84
2017-11-07T09:53:30.605Z,8.94
2017-11-07T09:54:30.297Z,8.95
2017-11-07T09:55:30.641Z,8.84
2017-11-07T09:56:30.983Z,8.97
2017-11-07T09:57:30.992Z,8.73
2017-11-07T09:58:30.702Z,8.69
2017-11-07T09:59:31.027Z,8.74
2017-11-07T10:00:30.397Z,8.7
2017-11-07T10:01:30.416Z,8.84
2017-11-07T10:02:30.753Z,8.84
2017-11-07T10:03:30.500Z,8.92
2017-11-07T10:04:30.790Z,8.99
2017-11-07T10:05:30.816Z,9.08
2017-11-07T10:06:31.164Z,9.02
2017-11-07T10:07:30.843Z,8.89
2017-11-07T10:08:31.180Z,8.95
2017-11-07T10:09:31.204Z,9.02
2017-11-07T10:10:30.889Z,9.02
2017-11-07T10:11:30.922Z,8.97
2017-11-07T10:12:30.603Z,8.79
2017-11-07T10:13:30.960Z,8.91
2017-11-07T10:14:31.282Z,8.97
2017-11-07T10:15:30.971Z,8.97
2017-11-07T10:16:30.992Z,9.1
2017-11-07T10:17:30.688Z,8.97
2017-11-07T10:18:31.080Z,9
2017-11-07T10:19:31.366Z,8.92
2017-11-07T10:20:31.383Z,8.88
2017-11-07T10:21:31.078Z,9.08
2017-11-07T10:22:31.096Z,9.08
2017-11-07T10:23:31.112Z,9.02
2017-11-07T10:24:31.493Z,9.02
2017-11-07T10:25:30.826Z,8.94
2017-11-07T10:26:31.162Z,8.78
2017-11-07T10:27:31.181Z,8.79
2017-11-07T10:28:31.540Z,8.82
2017-11-07T10:29:31.215Z,8.84
2017-11-07T10:30:30.909Z,8.81
2017-11-07T10:31:31.251Z,8.91
2017-11-07T10:32:30.958Z,9
2017-11-07T10:33:31.012Z,9.06
2017-11-07T10:34:31.302Z,8.97
2017-11-07T10:35:31.317Z,9.04
2017-11-07T10:36:31.655Z,9.03
2017-11-07T10:37:31.359Z,8.99
2017-11-07T10:38:31.369Z,8.95
2017-11-07T10:39:31.386Z,9.02
2017-11-07T10:40:31.732Z,9.08
2017-11-07T10:41:31.423Z,9.03
2017-11-07T10:42:31.435Z,9.23
2017-11-07T10:43:31.464Z,9.04
2017-11-07T10:44:31.797Z,9.19
2017-11-07T10:45:31.838Z,9.04
2017-11-07T10:46:31.509Z,9.16
2017-11-07T10:47:31.870Z,9.18
2017-11-07T10:48:31.913Z,9.32
2017-11-07T10:49:31.897Z,9.16
2017-11-07T10:50:31.254Z,9.11
2017-11-07T10:51:31.594Z,9.13
2017-11-07T10:52:31.931Z,9.29
2017-11-07T10:53:31.626Z,9.26
2017-11-07T10:54:31.323Z,9.25
2017-11-07T10:55:31.992Z,9.19
2017-11-07T10:56:32.000Z,9.4
2017-11-07T10:57:31.694Z,9.39
2017-11-07T10:58:31.714Z,9.39
2017-11-07T10:59:32.061Z,9.36
2017-11-07T11:00:31.751Z,9.48
2017-11-07T11:01:31.775Z,9.55
2017-11-07T11:02:31.788Z,9.65
2017-11-07T11:03:32.187Z,9.54
2017-11-07T11:04:32.142Z,9.51
2017-11-07T11:05:31.840Z,9.47
2017-11-07T11:06:32.183Z,9.54
2017-11-07T11:07:31.550Z,9.48
2017-11-07T11:08:31.615Z,9.54
2017-11-07T11:09:31.920Z,9.54
2017-11-07T11:10:31.600Z,9.43
2017-11-07T11:11:31.941Z,9.37
2017-11-07T11:12:31.958Z,9.43
2017-11-07T11:13:31.655Z,9.51
2017-11-07T11:14:31.992Z,9.64
2017-11-07T11:15:32.021Z,9.54
2017-11-07T11:16:31.707Z,9.65
2017-11-07T11:17:32.368Z,9.65
2017-11-07T11:18:32.431Z,9.55
2017-11-07T11:19:32.088Z,9.41
2017-11-07T11:20:32.098Z,9.34
2017-11-07T11:21:31.793Z,9.58
2017-11-07T11:22:32.455Z,9.51
2017-11-07T11:23:32.154Z,9.56
2017-11-07T11:24:31.845Z,9.56
2017-11-07T11:25:32.186Z,9.51
2017-11-07T11:26:31.887Z,9.54
2017-11-07T11:27:32.234Z,9.5
2017-11-07T11:28:32.560Z,9.56
2017-11-07T11:29:32.256Z,9.55
2017-11-07T11:30:31.949Z,9.47
2017-11-07T11:31:32.296Z,9.41
2017-11-07T11:32:32.635Z,9.4
2017-11-07T11:33:32.324Z,9.55
2017-11-07T11:34:32.020Z,9.48
2017-11-07T11:35:32.036Z,9.4
2017-11-07T11:36:32.706Z,9.39
2017-11-07T11:37:32.713Z,9.37
2017-11-07T11:38:32.419Z,9.34
2017-11-07T11:39:32.426Z,9.36
2017-11-07T11:40:32.768Z,9.39
2017-11-07T11:41:32.784Z,9.43
2017-11-07T11:42:32.802Z,9.46
2017-11-07T11:43:32.818Z,9.4
2017-11-07T11:44:32.515Z,9.37
2017-11-07T11:45:32.541Z,9.4
2017-11-07T11:46:32.232Z,9.43
2017-11-07T11:47:32.566Z,9.39
2017-11-07T11:48:32.640Z,9.36
2017-11-07T11:49:32.617Z,9.39
2017-11-07T11:50:32.945Z,9.34
2017-11-07T11:51:32.957Z,9.41
2017-11-07T11:52:32.658Z,9.4
2017-11-07T11:53:32.670Z,9.43
2017-11-07T11:54:33.018Z,9.31
2017-11-07T11:55:33.031Z,9.4
2017-11-07T11:56:32.725Z,9.39
2017-11-07T11:57:32.748Z,9.4
2017-11-07T11:58:32.762Z,9.37
2017-11-07T11:59:33.101Z,9.48
2017-11-07T12:00:32.797Z,9.54
2017-11-07T12:01:32.810Z,9.65
2017-11-07T12:02:33.153Z,9.61
2017-11-07T12:03:32.895Z,9.62
2017-11-07T12:04:33.190Z,9.65
2017-11-07T12:05:33.202Z,9.64
2017-11-07T12:06:32.903Z,9.74
2017-11-07T12:07:32.597Z,9.55
2017-11-07T12:08:33.266Z,9.51
2017-11-07T12:09:32.957Z,9.4
2017-11-07T12:10:32.973Z,9.51
2017-11-07T12:11:33.314Z,9.55
2017-11-07T12:12:32.685Z,9.4
2017-11-07T12:13:33.025Z,9.41
2017-11-07T12:14:33.048Z,9.47
2017-11-07T12:15:33.062Z,9.55
2017-11-07T12:16:33.078Z,9.55
2017-11-07T12:17:33.100Z,9.56
2017-11-07T12:18:33.164Z,9.65
2017-11-07T12:19:33.128Z,9.51
2017-11-07T12:20:33.152Z,9.54
2017-11-07T12:21:32.844Z,9.54
2017-11-07T12:22:33.508Z,9.54
2017-11-07T12:23:33.541Z,9.54
2017-11-07T12:24:32.917Z,9.59
2017-11-07T12:25:33.567Z,9.69
2017-11-07T12:26:32.934Z,9.8
2017-11-07T12:27:33.604Z,9.84
2017-11-07T12:28:33.022Z,9.83
2017-11-07T12:29:33.637Z,9.8
2017-11-07T12:30:33.327Z,9.83
2017-11-07T12:31:33.664Z,9.62
2017-11-07T12:32:33.041Z,9.73
2017-11-07T12:33:33.431Z,9.79
2017-11-07T12:34:33.076Z,9.84
2017-11-07T12:35:33.417Z,9.77
2017-11-07T12:36:33.754Z,9.74
2017-11-07T12:37:33.475Z,9.73
2017-11-07T12:38:33.799Z,9.79
2017-11-07T12:39:33.487Z,9.91
2017-11-07T12:40:33.509Z,9.98
2017-11-07T12:41:33.531Z,9.98
2017-11-07T12:42:33.218Z,9.99
2017-11-07T12:43:33.238Z,10.02
2017-11-07T12:44:33.900Z,9.84
2017-11-07T12:45:33.276Z,9.83
2017-11-07T12:46:33.620Z,9.89
2017-11-07T12:47:33.627Z,9.95
2017-11-07T12:48:33.694Z,10.01
2017-11-07T12:49:33.663Z,10.01
2017-11-07T12:50:34.009Z,9.97
2017-11-07T12:51:34.027Z,10.04
2017-11-07T12:52:33.741Z,9.87
2017-11-07T12:53:33.781Z,9.87
2017-11-07T12:54:33.433Z,9.91
2017-11-07T12:55:33.775Z,10.01
2017-11-07T12:56:34.167Z,10.01
2017-11-07T12:57:33.810Z,9.98
2017-11-07T12:58:33.827Z,9.84
2017-11-07T12:59:33.846Z,9.77
2017-11-07T13:00:33.540Z,9.86
2017-11-07T13:01:34.204Z,9.8
2017-11-07T13:02:34.220Z,9.82
2017-11-07T13:03:34.246Z,9.94
2017-11-07T13:04:34.301Z,9.99
2017-11-07T13:05:33.944Z,9.99
2017-11-07T13:06:33.961Z,9.86
2017-11-07T13:07:34.309Z,9.94
2017-11-07T13:08:34.005Z,9.95
2017-11-07T13:09:34.029Z,9.94
2017-11-07T13:10:34.373Z,9.98
2017-11-07T13:11:34.402Z,10.01
2017-11-07T13:12:34.410Z,9.99
2017-11-07T13:13:34.092Z,10.01
2017-11-07T13:14:34.432Z,10.02
2017-11-07T13:15:34.125Z,10.07
2017-11-07T13:16:34.164Z,10.02
2017-11-07T13:17:34.185Z,10.09
2017-11-07T13:18:34.174Z,10.04
2017-11-07T13:19:34.239Z,10.05
2017-11-07T13:20:34.212Z,10.05
2017-11-07T13:21:34.227Z,10.05